Time;durP1;ratioP1;P1;durP2;ratioP2;P2;SDS_P1;SDS_P2;PMS_P1;PMS_P2;Temp;Humidity;BMP_temperature;BMP_pressure;BME280_temperature;BME280_humidity;BME280_pressure;Samples;Min_cycle;Max_cycle;Signal;HPM_P1;HPM_P2
2023/09/23 00:00:14;;;;;;;2.67;0.90;;;13.20;99.90;;;;;;5112729;28;20067;-73
2023/09/23 00:02:44;;;;;;;3.30;1.00;;;13.10;99.90;;;;;;5113341;28;20193;-73
2023/09/23 00:05:14;;;;;;;1.90;1.05;;;13.10;99.90;;;;;;5113242;28;20114;-74
2023/09/23 00:07:41;;;;;;;2.05;1.10;;;13.10;99.90;;;;;;5094843;28;20044;-74
2023/09/23 00:10:10;;;;;;;4.70;1.30;;;13.00;99.90;;;;;;5077467;28;20043;-75
2023/09/23 00:12:38;;;;;;;3.58;1.40;;;13.00;99.90;;;;;;5094827;28;20035;-73
2023/09/23 00:15:07;;;;;;;2.42;1.50;;;13.00;99.90;;;;;;5094595;28;20078;-73
2023/09/23 00:17:37;;;;;;;3.20;1.85;;;13.00;99.90;;;;;;5094561;28;20039;-74
2023/09/23 00:20:05;;;;;;;3.45;1.98;;;13.10;99.90;;;;;;5094211;28;20516;-74
2023/09/23 00:22:31;;;;;;;3.25;1.83;;;13.00;99.90;;;;;;5077854;28;20419;-74
2023/09/23 00:24:58;;;;;;;3.95;1.80;;;13.00;99.90;;;;;;5113243;28;20039;-74
2023/09/23 00:27:26;;;;;;;3.50;2.15;;;13.10;99.90;;;;;;5094482;28;20062;-74
2023/09/23 00:29:51;;;;;;;2.70;2.08;;;13.00;99.90;;;;;;5094109;28;20511;-73
2023/09/23 00:32:17;;;;;;;3.28;2.10;;;13.00;99.90;;;;;;5094462;28;20078;-75
2023/09/23 00:34:44;;;;;;;3.58;2.08;;;13.00;99.90;;;;;;5112678;28;20039;-74
2023/09/23 00:37:10;;;;;;;3.28;1.98;;;13.00;99.90;;;;;;5094583;28;20099;-74
2023/09/23 00:39:39;;;;;;;2.15;1.60;;;13.00;99.90;;;;;;5093795;28;20047;-74
2023/09/23 00:42:04;;;;;;;3.40;1.75;;;12.90;99.90;;;;;;5094207;28;20039;-74
2023/09/23 00:44:30;;;;;;;4.05;2.00;;;12.90;99.90;;;;;;5094186;28;20112;-74
2023/09/23 00:46:56;;;;;;;2.83;1.70;;;13.00;99.90;;;;;;5112341;28;20050;-73
2023/09/23 00:49:24;;;;;;;2.47;1.83;;;12.90;99.90;;;;;;5076975;28;20077;-74
2023/09/23 00:51:51;;;;;;;3.47;2.25;;;12.90;99.90;;;;;;5093971;28;20514;-74
2023/09/23 00:54:21;;;;;;;4.20;2.58;;;12.90;99.90;;;;;;5094208;28;20055;-74
2023/09/23 00:56:47;;;;;;;7.45;2.70;;;12.90;99.90;;;;;;5093986;28;20506;-74
2023/09/23 00:59:16;;;;;;;2.95;2.33;;;12.90;99.90;;;;;;5093842;28;20521;-74
2023/09/23 01:01:42;;;;;;;2.63;1.92;;;12.80;99.90;;;;;;5094026;28;20491;-75
2023/09/23 01:04:13;;;;;;;3.83;1.98;;;12.80;99.90;;;;;;5112209;28;20045;-75
2023/09/23 01:06:38;;;;;;;4.68;1.75;;;12.80;99.90;;;;;;5112098;28;20407;-75
2023/09/23 01:09:16;;;;;;;4.47;2.78;;;12.80;99.90;;;;;;5093788;28;20051;-75
2023/09/23 01:11:42;;;;;;;3.50;1.75;;;12.80;99.90;;;;;;5094069;28;20096;-75
2023/09/23 01:14:10;;;;;;;4.95;1.65;;;12.80;99.90;;;;;;5094251;28;20040;-75
2023/09/23 01:16:37;;;;;;;2.65;1.48;;;12.80;99.90;;;;;;5112035;28;20434;-75
2023/09/23 01:19:03;;;;;;;2.65;1.60;;;12.70;99.90;;;;;;5095819;28;20482;-75
2023/09/23 01:21:28;;;;;;;2.13;1.40;;;12.80;99.90;;;;;;5115346;28;20046;-74
2023/09/23 01:23:54;;;;;;;2.13;1.70;;;12.70;99.90;;;;;;5092692;28;20036;-75
2023/09/23 01:26:19;;;;;;;2.70;1.77;;;12.70;99.90;;;;;;5094277;28;20102;-75
2023/09/23 01:28:48;;;;;;;3.45;1.92;;;12.70;99.90;;;;;;5089674;28;20482;-73
2023/09/23 01:31:13;;;;;;;2.90;1.80;;;12.70;99.90;;;;;;5115728;28;20448;-73
2023/09/23 01:33:39;;;;;;;5.22;1.80;;;12.70;99.90;;;;;;5116153;28;20036;-73
2023/09/23 01:36:05;;;;;;;4.03;1.85;;;12.70;99.90;;;;;;5116004;28;20558;-73
2023/09/23 01:38:32;;;;;;;3.08;1.27;;;12.70;99.90;;;;;;5116010;28;20036;-73
2023/09/23 01:40:59;;;;;;;5.65;1.85;;;12.70;99.90;;;;;;5115655;28;20066;-73
2023/09/23 01:43:26;;;;;;;3.78;1.88;;;12.70;99.90;;;;;;5107578;28;20104;-73
2023/09/23 01:45:52;;;;;;;2.95;1.98;;;12.60;99.90;;;;;;5115913;28;20055;-73
2023/09/23 01:48:22;;;;;;;3.50;1.55;;;12.70;99.90;;;;;;5080645;28;20078;-73
2023/09/23 01:50:49;;;;;;;4.20;1.75;;;12.70;99.90;;;;;;5097481;28;20410;-73
2023/09/23 01:53:19;;;;;;;2.50;1.33;;;12.60;99.90;;;;;;5097558;28;20039;-73
2023/09/23 01:55:45;;;;;;;2.50;1.38;;;12.60;99.90;;;;;;5115791;28;20118;-73
2023/09/23 01:58:10;;;;;;;3.00;1.63;;;12.70;99.90;;;;;;5097432;28;20039;-73
2023/09/23 02:00:37;;;;;;;2.58;1.52;;;12.60;99.90;;;;;;5115235;28;20061;-73
2023/09/23 02:03:03;;;;;;;2.15;1.20;;;12.60;99.90;;;;;;5097280;28;20042;-73
2023/09/23 02:05:29;;;;;;;1.90;1.05;;;12.60;99.90;;;;;;5115653;28;20053;-73
2023/09/23 02:07:55;;;;;;;2.00;0.85;;;12.60;99.90;;;;;;5115555;28;20567;-73
2023/09/23 02:10:23;;;;;;;3.08;1.02;;;12.50;99.90;;;;;;5115254;28;20035;-73
2023/09/23 02:12:49;;;;;;;1.67;1.10;;;12.50;99.90;;;;;;5097244;28;20058;-73
2023/09/23 02:15:15;;;;;;;2.13;1.10;;;12.50;99.90;;;;;;5097219;28;20431;-73
2023/09/23 02:17:47;;;;;;;1.67;0.90;;;12.50;99.90;;;;;;5115178;28;20050;-73
2023/09/23 02:20:20;;;;;;;1.23;0.70;;;12.50;99.90;;;;;;5115011;28;20035;-73
2023/09/23 02:22:47;;;;;;;0.98;0.65;;;12.50;99.90;;;;;;5096951;28;20040;-73
2023/09/23 02:25:14;;;;;;;1.80;1.00;;;12.50;99.90;;;;;;5115066;28;20534;-73
2023/09/23 02:27:46;;;;;;;3.70;0.60;;;12.50;99.90;;;;;;5096758;28;20046;-73
2023/09/23 02:30:13;;;;;;;4.38;1.10;;;12.50;99.90;;;;;;5114420;28;20521;-73
2023/09/23 02:32:44;;;;;;;3.75;1.15;;;12.50;99.90;;;;;;5115212;28;20106;-73
2023/09/23 02:35:12;;;;;;;3.17;1.20;;;12.50;99.90;;;;;;5096690;28;20115;-73
2023/09/23 02:37:42;;;;;;;2.10;1.20;;;12.50;99.90;;;;;;5094290;28;20047;-73
2023/09/23 02:40:11;;;;;;;2.60;1.70;;;12.50;99.90;;;;;;5108481;28;20100;-73
2023/09/23 02:42:38;;;;;;;4.88;1.90;;;12.50;99.90;;;;;;5114630;28;20538;-73
2023/09/23 02:45:05;;;;;;;3.45;2.08;;;12.50;99.90;;;;;;5114706;28;20092;-73
2023/09/23 02:47:31;;;;;;;3.50;1.85;;;12.50;99.90;;;;;;5114814;28;20046;-73
2023/09/23 02:49:57;;;;;;;4.50;1.98;;;12.50;99.90;;;;;;5096111;28;20043;-73
2023/09/23 02:52:22;;;;;;;3.42;2.88;;;12.50;99.90;;;;;;5114629;28;20161;-73
2023/09/23 02:54:50;;;;;;;3.90;2.90;;;12.40;99.90;;;;;;5114475;28;20046;-73
2023/09/23 02:57:15;;;;;;;4.90;2.72;;;12.40;99.90;;;;;;5096149;28;20526;-73
2023/09/23 02:59:41;;;;;;;5.03;2.90;;;12.40;99.90;;;;;;5095681;28;20039;-73
2023/09/23 03:02:08;;;;;;;4.60;2.80;;;12.40;99.90;;;;;;5079273;28;20043;-73
2023/09/23 03:04:34;;;;;;;5.22;2.58;;;12.40;99.90;;;;;;5114314;28;20092;-73
2023/09/23 03:07:06;;;;;;;3.65;2.60;;;12.30;99.90;;;;;;5096026;28;20093;-73
2023/09/23 03:09:32;;;;;;;4.57;2.53;;;12.40;99.90;;;;;;5113992;28;20602;-73
2023/09/23 03:12:00;;;;;;;7.03;2.95;;;12.30;99.90;;;;;;5114280;28;20249;-73
2023/09/23 03:14:36;;;;;;;6.40;3.13;;;12.30;99.90;;;;;;5095878;28;20128;-73
2023/09/23 03:17:07;;;;;;;4.32;2.83;;;12.30;99.90;;;;;;5095928;28;20449;-73
2023/09/23 03:19:33;;;;;;;6.30;3.42;;;12.30;99.90;;;;;;5095393;28;20040;-73
2023/09/23 03:22:00;;;;;;;6.15;3.50;;;12.20;99.90;;;;;;5095674;28;20073;-73
2023/09/23 03:24:28;;;;;;;7.72;3.67;;;12.20;99.90;;;;;;5095914;28;20402;-73
2023/09/23 03:26:56;;;;;;;10.45;4.55;;;12.20;99.90;;;;;;5095588;28;20047;-73
2023/09/23 03:29:28;;;;;;;4.75;3.75;;;12.10;99.90;;;;;;5095265;28;20051;-73
2023/09/23 03:31:55;;;;;;;7.05;4.65;;;12.20;99.90;;;;;;5113690;28;20119;-73
2023/09/23 03:34:21;;;;;;;6.75;4.45;;;12.20;99.90;;;;;;5113735;28;20050;-73
2023/09/23 03:36:47;;;;;;;9.40;4.80;;;12.10;99.90;;;;;;5113640;28;20035;-73
2023/09/23 03:39:13;;;;;;;7.65;4.95;;;12.20;99.90;;;;;;5095170;28;20402;-73
2023/09/23 03:41:44;;;;;;;6.32;4.68;;;12.10;99.90;;;;;;5112906;28;20055;-73
2023/09/23 03:44:09;;;;;;;6.35;4.47;;;12.10;99.90;;;;;;5113637;28;20044;-73
2023/09/23 03:46:35;;;;;;;9.57;5.65;;;12.00;99.90;;;;;;5113530;28;20036;-73
2023/09/23 03:49:00;;;;;;;7.63;5.22;;;12.10;99.90;;;;;;5113198;28;20506;-73
2023/09/23 03:51:26;;;;;;;5.82;4.95;;;12.10;99.90;;;;;;5113281;28;20075;-73
2023/09/23 03:53:52;;;;;;;8.07;5.07;;;12.00;99.90;;;;;;5113518;28;20036;-73
2023/09/23 03:56:24;;;;;;;8.10;5.43;;;12.00;99.90;;;;;;5095247;28;20047;-73
2023/09/23 03:58:52;;;;;;;6.97;5.35;;;12.00;99.90;;;;;;5094615;28;20044;-73
2023/09/23 04:01:19;;;;;;;9.68;5.65;;;11.90;99.90;;;;;;5113077;28;20498;-73
2023/09/23 04:03:45;;;;;;;7.85;5.95;;;11.90;99.90;;;;;;5113164;28;20067;-73
2023/09/23 04:06:11;;;;;;;8.35;5.10;;;11.90;99.90;;;;;;5113109;28;20603;-73
2023/09/23 04:08:37;;;;;;;8.02;5.45;;;11.90;99.90;;;;;;5094692;28;20096;-73
2023/09/23 04:11:10;;;;;;;7.22;5.10;;;11.90;99.90;;;;;;5094451;28;20044;-73
2023/09/23 04:13:37;;;;;;;6.65;5.60;;;11.80;99.90;;;;;;5094755;28;20082;-73
2023/09/23 04:16:05;;;;;;;6.70;5.20;;;11.80;99.90;;;;;;5077825;28;20031;-73
2023/09/23 04:18:31;;;;;;;9.93;5.57;;;11.80;99.90;;;;;;5094407;28;20583;-73
2023/09/23 04:20:57;;;;;;;8.05;5.88;;;11.80;99.90;;;;;;5112780;28;20028;-73
2023/09/23 04:23:23;;;;;;;7.78;6.07;;;11.80;99.90;;;;;;5112953;28;20042;-73
2023/09/23 04:25:49;;;;;;;10.70;6.75;;;11.80;99.90;;;;;;5094546;28;20036;-73
2023/09/23 04:28:16;;;;;;;7.50;5.38;;;11.70;99.90;;;;;;5094475;28;20043;-73
2023/09/23 04:30:42;;;;;;;8.07;5.63;;;11.70;99.90;;;;;;5094375;28;20382;-73
2023/09/23 04:33:07;;;;;;;7.10;5.63;;;11.70;99.90;;;;;;5094388;28;20042;-73
2023/09/23 04:35:34;;;;;;;8.73;6.28;;;11.70;99.90;;;;;;5112567;28;20135;-73
2023/09/23 04:38:00;;;;;;;11.35;6.30;;;11.70;99.90;;;;;;5094272;28;20114;-73
2023/09/23 04:40:26;;;;;;;10.38;5.93;;;11.60;99.90;;;;;;5093738;28;20045;-73
2023/09/23 04:42:52;;;;;;;7.95;5.90;;;11.60;99.90;;;;;;5112512;28;20476;-73
2023/09/23 04:45:20;;;;;;;8.02;5.82;;;11.60;99.90;;;;;;5094445;28;20039;-73
2023/09/23 04:47:50;;;;;;;9.90;6.90;;;11.60;99.90;;;;;;5112255;28;20402;-73
2023/09/23 04:50:17;;;;;;;7.78;6.53;;;11.60;99.90;;;;;;5094022;28;20097;-73
2023/09/23 04:52:43;;;;;;;7.43;5.60;;;11.60;99.90;;;;;;5111654;28;20089;-73
2023/09/23 04:55:09;;;;;;;8.07;6.50;;;11.50;99.90;;;;;;5112359;28;20036;-73
2023/09/23 04:57:36;;;;;;;9.38;6.90;;;11.50;99.90;;;;;;5112327;28;20035;-73
2023/09/23 05:00:04;;;;;;;8.57;6.15;;;11.50;99.90;;;;;;5111779;28;20044;-73
2023/09/23 05:02:30;;;;;;;10.52;7.75;;;11.50;99.90;;;;;;5094229;28;20036;-73
2023/09/23 05:04:55;;;;;;;11.63;8.55;;;11.50;99.90;;;;;;5094182;28;20070;-73
2023/09/23 05:07:25;;;;;;;10.15;8.02;;;11.50;99.90;;;;;;5093889;28;20550;-73
2023/09/23 05:09:51;;;;;;;12.73;7.82;;;11.50;99.90;;;;;;5093589;28;20039;-73
2023/09/23 05:12:17;;;;;;;12.57;8.20;;;11.50;99.90;;;;;;5112083;28;20084;-73
2023/09/23 05:14:43;;;;;;;11.68;8.48;;;11.50;99.90;;;;;;5093744;28;20046;-73
2023/09/23 05:17:14;;;;;;;11.35;9.02;;;11.50;99.90;;;;;;5112007;28;20039;-73
2023/09/23 05:19:39;;;;;;;14.65;8.40;;;11.50;99.90;;;;;;5093342;28;20081;-73
2023/09/23 05:22:05;;;;;;;11.27;7.72;;;11.50;99.90;;;;;;5093685;28;20043;-73
2023/09/23 05:24:30;;;;;;;12.55;8.75;;;11.60;99.90;;;;;;5093690;28;20043;-73
2023/09/23 05:26:56;;;;;;;11.38;7.85;;;11.60;99.90;;;;;;5093548;28;20038;-73
2023/09/23 05:29:25;;;;;;;13.77;9.07;;;11.60;99.90;;;;;;5111508;28;20050;-73
2023/09/23 05:31:50;;;;;;;13.27;9.10;;;11.60;99.90;;;;;;5112035;28;20096;-73
2023/09/23 05:34:18;;;;;;;13.30;8.55;;;11.60;99.90;;;;;;5093728;28;20447;-73
2023/09/23 05:36:45;;;;;;;12.50;8.68;;;11.60;99.90;;;;;;5093672;28;20040;-73
2023/09/23 05:39:14;;;;;;;13.32;9.60;;;11.60;99.90;;;;;;5093359;28;20062;-73
2023/09/23 05:41:40;;;;;;;11.40;8.35;;;11.70;99.90;;;;;;5093678;28;20044;-73
2023/09/23 05:44:07;;;;;;;13.73;9.65;;;11.70;99.90;;;;;;5093531;28;20787;-73
2023/09/23 05:46:35;;;;;;;12.90;8.50;;;11.60;99.90;;;;;;5111958;28;20047;-74
2023/09/23 05:49:02;;;;;;;12.57;8.93;;;11.70;99.90;;;;;;5093514;28;20131;-74
2023/09/23 05:51:28;;;;;;;13.90;9.18;;;11.70;99.90;;;;;;5111565;28;20518;-73
2023/09/23 05:53:53;;;;;;;12.40;9.02;;;11.70;99.90;;;;;;5111666;28;20040;-74
2023/09/23 05:56:19;;;;;;;12.15;8.35;;;11.70;99.90;;;;;;5093422;28;20460;-73
2023/09/23 05:58:46;;;;;;;13.40;8.98;;;11.70;99.90;;;;;;5111744;28;20157;-74
2023/09/23 06:01:13;;;;;;;13.45;8.48;;;11.70;99.90;;;;;;5111660;28;20100;-73
2023/09/23 06:03:41;;;;;;;13.93;9.35;;;11.70;99.90;;;;;;5111743;28;20042;-73
2023/09/23 06:06:07;;;;;;;12.05;8.75;;;11.70;99.90;;;;;;5097344;28;20115;-74
2023/09/23 06:08:32;;;;;;;12.18;8.75;;;11.70;99.90;;;;;;5096969;28;20634;-73
2023/09/23 06:11:05;;;;;;;13.13;9.98;;;11.70;99.90;;;;;;5115124;28;20138;-74
2023/09/23 06:13:34;;;;;;;15.13;9.98;;;11.70;99.90;;;;;;5096960;28;20547;-73
2023/09/23 06:16:04;;;;;;;14.40;9.82;;;11.70;99.90;;;;;;5097103;28;20551;-73
2023/09/23 06:18:30;;;;;;;14.90;10.38;;;11.70;99.90;;;;;;5115143;28;20059;-73
2023/09/23 06:21:04;;;;;;;16.30;10.70;;;11.70;99.90;;;;;;5115032;28;20040;-74
2023/09/23 06:23:31;;;;;;;15.27;10.95;;;11.80;99.90;;;;;;5115021;28;20044;-73
2023/09/23 06:26:00;;;;;;;18.33;11.93;;;11.80;99.90;;;;;;5080240;28;20027;-74
2023/09/23 06:28:26;;;;;;;19.58;13.02;;;11.90;99.90;;;;;;5096885;28;20109;-74
2023/09/23 06:30:52;;;;;;;18.52;12.95;;;11.90;99.90;;;;;;5114909;28;20499;-73
2023/09/23 06:33:18;;;;;;;19.52;12.98;;;11.90;99.90;;;;;;5096950;28;20115;-73
2023/09/23 06:35:44;;;;;;;19.95;13.40;;;11.90;99.90;;;;;;5114993;28;20471;-74
2023/09/23 06:38:09;;;;;;;21.98;14.18;;;11.90;99.90;;;;;;5114609;28;20399;-74
2023/09/23 06:40:35;;;;;;;20.80;13.88;;;11.90;99.90;;;;;;5096035;28;20047;-73
2023/09/23 06:43:01;;;;;;;24.67;14.90;;;11.80;99.90;;;;;;5114712;28;20044;-73
2023/09/23 06:45:26;;;;;;;23.23;15.10;;;11.90;99.90;;;;;;5096755;28;20040;-73
2023/09/23 06:47:52;;;;;;;24.33;16.42;;;11.90;99.90;;;;;;5096407;28;20470;-73
2023/09/23 06:50:17;;;;;;;24.27;15.13;;;11.90;99.90;;;;;;5096052;28;20043;-74
2023/09/23 06:52:43;;;;;;;24.50;16.95;;;12.00;99.90;;;;;;5096448;28;20035;-74
2023/09/23 06:55:09;;;;;;;27.85;17.60;;;12.00;99.90;;;;;;5096438;28;20411;-75
2023/09/23 06:57:35;;;;;;;34.90;18.88;;;12.00;99.90;;;;;;5079427;28;20051;-75
2023/09/23 07:00:03;;;;;;;30.85;17.63;;;12.10;99.90;;;;;;5095814;28;20040;-75
2023/09/23 07:02:28;;;;;;;29.23;18.17;;;12.20;99.90;;;;;;5096113;28;20035;-74
2023/09/23 07:04:54;;;;;;;31.70;19.23;;;12.20;99.90;;;;;;5096126;28;20524;-74
2023/09/23 07:07:19;;;;;;;29.00;17.95;;;12.30;99.90;;;;;;5095999;28;20036;-74
2023/09/23 07:09:45;;;;;;;32.47;18.63;;;12.40;99.90;;;;;;5095635;28;20079;-74
2023/09/23 07:12:12;;;;;;;32.08;19.25;;;12.70;99.90;;;;;;5095970;28;20055;-74
2023/09/23 07:14:39;;;;;;;31.77;18.92;;;12.90;99.90;;;;;;5096069;28;20566;-74
2023/09/23 07:17:06;;;;;;;31.42;19.40;;;13.00;99.90;;;;;;5094937;28;20406;-74
2023/09/23 07:19:34;;;;;;;32.50;20.20;;;13.20;99.90;;;;;;5095653;28;20075;-74
2023/09/23 07:22:01;;;;;;;31.92;19.23;;;13.30;99.90;;;;;;5078709;28;20042;-74
2023/09/23 07:24:27;;;;;;;32.15;18.65;;;13.40;99.90;;;;;;5095665;28;20042;-74
2023/09/23 07:26:59;;;;;;;26.33;18.38;;;13.40;99.90;;;;;;5095638;28;20118;-74
2023/09/23 07:29:25;;;;;;;26.98;19.20;;;13.40;99.90;;;;;;5091010;28;20035;-74
2023/09/23 07:31:55;;;;;;;26.35;17.80;;;13.30;99.90;;;;;;5085255;28;20039;-74
2023/09/23 07:34:21;;;;;;;29.55;17.80;;;13.30;99.90;;;;;;5077725;28;20051;-74
2023/09/23 07:36:46;;;;;;;26.92;18.80;;;13.20;99.90;;;;;;5093464;28;20043;-74
2023/09/23 07:39:12;;;;;;;24.92;18.15;;;13.20;99.90;;;;;;5093135;28;20040;-74
2023/09/23 07:41:38;;;;;;;23.35;16.95;;;13.20;99.90;;;;;;5074965;28;20059;-75
2023/09/23 07:44:04;;;;;;;28.25;16.70;;;13.10;99.90;;;;;;5093379;28;20043;-74
2023/09/23 07:46:30;;;;;;;25.90;17.35;;;13.10;99.90;;;;;;5075356;28;20064;-74
2023/09/23 07:48:56;;;;;;;24.38;16.92;;;13.20;99.90;;;;;;5074611;28;20100;-74
2023/09/23 07:51:22;;;;;;;27.35;17.83;;;13.20;99.90;;;;;;5092981;28;20036;-74
2023/09/23 07:53:47;;;;;;;28.13;18.42;;;13.40;99.90;;;;;;5075113;28;20043;-74
2023/09/23 07:56:13;;;;;;;26.58;17.30;;;13.40;99.90;;;;;;5075185;28;20141;-74
2023/09/23 07:58:38;;;;;;;25.33;18.25;;;13.50;99.90;;;;;;5074631;28;20048;-74
2023/09/23 08:01:04;;;;;;;26.58;18.15;;;13.50;99.90;;;;;;5092651;28;20036;-74
2023/09/23 08:03:30;;;;;;;28.05;18.40;;;13.60;99.90;;;;;;5092800;28;20094;-73
2023/09/23 08:05:56;;;;;;;27.23;18.23;;;13.70;99.90;;;;;;5094590;28;20415;-74
2023/09/23 08:08:21;;;;;;;26.90;18.35;;;14.00;99.90;;;;;;5057993;28;20093;-74
2023/09/23 08:10:50;;;;;;;25.23;17.83;;;14.10;99.90;;;;;;5092690;28;20371;-74
2023/09/23 08:13:20;;;;;;;26.30;16.42;;;14.30;99.90;;;;;;5074763;28;20036;-74
2023/09/23 08:15:46;;;;;;;25.60;17.35;;;14.30;99.90;;;;;;5085504;28;20059;-74
2023/09/23 08:18:15;;;;;;;25.38;16.85;;;14.30;99.90;;;;;;5086566;28;20823;-74
2023/09/23 08:20:40;;;;;;;20.55;14.57;;;14.30;99.90;;;;;;5084655;28;20044;-75
2023/09/23 08:23:06;;;;;;;23.73;17.23;;;14.20;99.90;;;;;;5081037;28;20477;-74
2023/09/23 08:25:32;;;;;;;21.38;14.80;;;14.20;99.90;;;;;;5091552;28;20074;-74
2023/09/23 08:27:58;;;;;;;24.17;15.27;;;14.40;99.90;;;;;;5112845;28;20039;-75
2023/09/23 08:30:25;;;;;;;24.58;15.60;;;14.60;99.90;;;;;;5094301;28;20131;-75
2023/09/23 08:32:50;;;;;;;21.88;15.93;;;14.90;99.90;;;;;;5112931;28;20055;-74
2023/09/23 08:35:16;;;;;;;23.75;15.02;;;15.20;99.90;;;;;;5094357;28;20043;-74
2023/09/23 08:37:41;;;;;;;19.52;14.20;;;15.40;99.90;;;;;;5094434;28;20097;-74
2023/09/23 08:40:10;;;;;;;18.05;13.23;;;15.70;99.90;;;;;;5089554;28;20043;-75
2023/09/23 08:42:36;;;;;;;17.55;12.43;;;15.80;99.90;;;;;;5089066;28;20046;-75
2023/09/23 08:45:05;;;;;;;15.43;11.95;;;15.80;99.90;;;;;;5088010;28;20115;-75
2023/09/23 08:47:31;;;;;;;16.33;10.77;;;15.50;99.90;;;;;;5088195;28;20038;-75
2023/09/23 08:49:56;;;;;;;18.73;12.50;;;15.40;99.90;;;;;;5077085;28;20425;-75
2023/09/23 08:52:24;;;;;;;17.77;12.43;;;15.30;99.90;;;;;;5077240;28;20117;-74
2023/09/23 08:54:50;;;;;;;16.73;11.32;;;15.10;99.90;;;;;;5077432;28;20406;-75
2023/09/23 08:57:16;;;;;;;16.63;12.15;;;15.10;99.90;;;;;;5077372;28;20138;-74
2023/09/23 08:59:43;;;;;;;14.45;11.05;;;15.00;99.90;;;;;;5076705;28;20039;-74
2023/09/23 09:02:10;;;;;;;16.02;11.15;;;15.10;99.90;;;;;;5073787;28;20047;-74
2023/09/23 09:04:36;;;;;;;15.15;10.77;;;15.00;99.90;;;;;;5091491;28;20039;-75
2023/09/23 09:07:03;;;;;;;14.63;10.07;;;14.90;99.90;;;;;;5077049;28;20043;-76
2023/09/23 09:09:29;;;;;;;14.50;9.18;;;15.00;99.90;;;;;;5076788;28;20043;-75
2023/09/23 09:11:55;;;;;;;16.23;9.85;;;15.00;99.90;;;;;;5093760;28;20042;-75
2023/09/23 09:14:22;;;;;;;13.35;9.38;;;14.90;99.90;;;;;;5094108;28;20047;-75
2023/09/23 09:16:48;;;;;;;12.38;9.30;;;15.20;99.90;;;;;;5093781;28;20039;-74
2023/09/23 09:19:14;;;;;;;13.57;9.43;;;15.40;99.90;;;;;;5093383;28;20123;-74
2023/09/23 09:21:41;;;;;;;14.23;9.23;;;15.50;99.90;;;;;;5076901;28;20032;-74
2023/09/23 09:24:08;;;;;;;13.80;9.23;;;15.60;99.90;;;;;;5093705;28;20039;-74
2023/09/23 09:26:40;;;;;;;12.32;8.75;;;15.70;99.90;;;;;;5094314;28;20570;-75
2023/09/23 09:29:06;;;;;;;13.13;8.30;;;15.90;99.90;;;;;;5112473;28;20036;-75
2023/09/23 09:31:36;;;;;;;14.07;8.52;;;16.00;99.90;;;;;;5093972;28;20503;-75
2023/09/23 09:34:08;;;;;;;10.93;8.07;;;16.10;99.90;;;;;;5093902;28;20101;-75
2023/09/23 09:36:39;;;;;;;12.15;7.82;;;15.80;99.90;;;;;;5076875;28;20088;-75
2023/09/23 09:39:07;;;;;;;10.50;7.35;;;15.70;99.90;;;;;;5093959;28;20036;-74
2023/09/23 09:41:50;;;;;;;9.23;7.10;;;16.00;99.90;;;;;;5097503;28;20414;-74
2023/09/23 09:44:20;;;;;;;8.63;6.77;;;16.10;99.90;;;;;;5097968;28;20569;-74
2023/09/23 09:46:48;;;;;;;8.40;6.18;;;16.30;99.90;;;;;;5080972;28;20042;-75
2023/09/23 09:49:17;;;;;;;10.07;5.50;;;16.40;99.90;;;;;;5096984;28;20605;-74
2023/09/23 09:51:48;;;;;;;9.27;6.35;;;16.30;99.90;;;;;;5097335;28;20044;-73
2023/09/23 09:54:19;;;;;;;7.75;5.93;;;16.30;99.90;;;;;;5097826;28;20051;-74
2023/09/23 09:56:49;;;;;;;10.40;6.18;;;16.30;99.90;;;;;;5097524;28;20092;-75
2023/09/23 09:59:27;;;;;;;8.13;5.13;;;16.30;99.90;;;;;;5093650;28;20471;-74
2023/09/23 10:01:56;;;;;;;7.10;5.10;;;16.40;99.90;;;;;;5094961;28;20040;-74
2023/09/23 10:04:22;;;;;;;7.22;4.68;;;16.40;99.90;;;;;;5073162;28;20036;-74
2023/09/23 10:06:56;;;;;;;9.00;5.82;;;16.50;99.90;;;;;;5105179;28;20038;-74
2023/09/23 10:09:27;;;;;;;6.68;4.40;;;16.40;99.90;;;;;;5091888;28;20529;-74
2023/09/23 10:11:56;;;;;;;8.90;4.70;;;16.40;99.90;;;;;;5071704;28;20040;-75
2023/09/23 10:14:23;;;;;;;5.60;5.00;;;16.40;99.90;;;;;;5080130;28;20035;-73
2023/09/23 10:16:50;;;;;;;9.13;5.28;;;16.30;99.90;;;;;;5097171;28;20654;-74
2023/09/23 10:19:15;;;;;;;6.85;5.38;;;16.30;99.90;;;;;;5079838;28;20039;-74
2023/09/23 10:21:44;;;;;;;5.53;4.32;;;16.20;99.90;;;;;;5096827;28;20035;-74
2023/09/23 10:24:18;;;;;;;6.57;4.78;;;16.30;99.90;;;;;;5096929;28;20043;-74
2023/09/23 10:26:44;;;;;;;7.07;4.80;;;16.40;99.90;;;;;;5096744;28;20047;-74
2023/09/23 10:29:10;;;;;;;6.88;4.32;;;16.60;99.90;;;;;;5096567;28;20047;-73
2023/09/23 10:31:37;;;;;;;7.85;4.90;;;16.60;99.90;;;;;;5080072;28;20497;-74
2023/09/23 10:34:10;;;;;;;6.30;4.50;;;16.60;99.90;;;;;;5096731;28;20075;-74
2023/09/23 10:36:36;;;;;;;7.95;4.57;;;16.70;99.90;;;;;;5096926;28;20036;-74
2023/09/23 10:39:15;;;;;;;5.43;4.75;;;16.80;99.90;;;;;;5096461;28;20513;-75
2023/09/23 10:41:41;;;;;;;6.07;4.40;;;16.70;99.90;;;;;;5096711;28;20046;-75
2023/09/23 10:44:07;;;;;;;5.90;4.07;;;16.70;99.90;;;;;;5096786;28;20032;-75
2023/09/23 10:46:33;;;;;;;7.57;4.03;;;16.80;99.90;;;;;;5079561;28;20509;-74
2023/09/23 10:48:59;;;;;;;4.85;3.60;;;16.80;99.90;;;;;;5096140;28;20118;-74
2023/09/23 10:51:26;;;;;;;5.88;3.38;;;16.70;99.90;;;;;;5113288;28;20107;-75
2023/09/23 10:53:51;;;;;;;4.18;3.22;;;16.50;99.90;;;;;;5114686;28;20039;-74
2023/09/23 10:56:24;;;;;;;8.85;6.10;;;16.40;99.90;;;;;;5096239;28;20061;-74
2023/09/23 10:58:51;;;;;;;;;;;16.20;99.90;;;;;;5114794;28;20462;-74
2023/09/23 11:01:20;;;;;;;6.03;3.67;;;15.90;99.90;;;;;;5114311;28;20636;-75
2023/09/23 11:03:46;;;;;;;6.70;4.20;;;15.90;99.90;;;;;;5096036;28;20131;-74
2023/09/23 11:06:12;;;;;;;7.03;4.43;;;15.80;99.90;;;;;;5114454;28;20063;-74
2023/09/23 11:08:39;;;;;;;5.90;4.70;;;15.70;99.90;;;;;;5079067;28;20032;-75
2023/09/23 11:11:09;;;;;;;8.23;5.18;;;15.70;99.90;;;;;;5078950;28;20126;-75
2023/09/23 11:13:35;;;;;;;8.38;5.50;;;15.80;99.90;;;;;;5096154;28;20035;-75
2023/09/23 11:16:10;;;;;;;8.40;5.43;;;15.80;99.90;;;;;;5095835;28;20035;-74
2023/09/23 11:18:37;;;;;;;9.98;4.50;;;15.90;99.90;;;;;;5078968;28;20604;-74
2023/09/23 11:21:02;;;;;;;6.45;4.78;;;16.00;99.90;;;;;;5095557;28;20499;-75
2023/09/23 11:23:29;;;;;;;6.93;4.03;;;16.10;99.90;;;;;;5095907;28;20042;-75
2023/09/23 11:25:56;;;;;;;5.93;3.63;;;16.20;99.90;;;;;;5095980;28;20036;-75
2023/09/23 11:28:24;;;;;;;7.50;3.72;;;16.20;99.90;;;;;;5078799;28;20047;-75
2023/09/23 11:30:51;;;;;;;5.75;3.30;;;16.20;99.90;;;;;;5095387;28;20047;-74
2023/09/23 11:33:17;;;;;;;6.00;3.25;;;16.30;99.90;;;;;;5078726;28;20122;-74
2023/09/23 11:35:44;;;;;;;7.13;3.30;;;16.30;99.90;;;;;;5095411;28;20082;-74
2023/09/23 11:38:11;;;;;;;3.65;3.28;;;16.40;99.90;;;;;;5078454;28;20741;-74
2023/09/23 11:40:36;;;;;;;6.45;2.95;;;16.30;99.90;;;;;;5090847;28;20042;-74
2023/09/23 11:43:03;;;;;;;4.28;3.20;;;16.30;99.90;;;;;;5070010;28;20426;-74
2023/09/23 11:45:29;;;;;;;5.30;2.50;;;16.20;99.90;;;;;;5095600;28;20040;-73
2023/09/23 11:47:59;;;;;;;5.00;2.47;;;16.10;99.90;;;;;;5095183;28;20499;-74
2023/09/23 11:50:25;;;;;;;4.35;2.67;;;16.10;99.90;;;;;;5094803;28;20046;-75
2023/09/23 11:52:52;;;;;;;5.85;2.85;;;16.10;99.90;;;;;;5094835;28;20039;-74
2023/09/23 11:55:18;;;;;;;5.75;2.97;;;16.20;99.90;;;;;;5094907;28;20105;-74
2023/09/23 11:57:44;;;;;;;4.53;2.90;;;16.10;99.90;;;;;;5087864;28;20123;-77
2023/09/23 12:00:11;;;;;;;4.57;3.25;;;16.30;99.90;;;;;;5093471;28;20340;-78
2023/09/23 12:02:40;;;;;;;4.50;3.72;;;16.30;99.90;;;;;;5072372;28;20040;-78
2023/09/23 12:05:07;;;;;;;5.65;3.60;;;16.20;99.90;;;;;;5097342;28;20114;-79
2023/09/23 12:07:34;;;;;;;7.78;3.55;;;16.20;99.90;;;;;;5093098;28;20051;-78
2023/09/23 12:10:05;;;;;;;9.13;3.85;;;16.20;99.90;;;;;;5079397;28;20050;-79
2023/09/23 12:12:32;;;;;;;8.45;4.55;;;16.10;99.90;;;;;;5067327;28;20035;-79
2023/09/23 12:14:57;;;;;;;7.60;3.97;;;16.10;99.90;;;;;;5090850;28;20085;-78
2023/09/23 12:17:27;;;;;;;6.35;4.53;;;16.10;99.90;;;;;;5087991;28;20036;-79
2023/09/23 12:19:53;;;;;;;7.65;5.15;;;16.00;99.90;;;;;;5093511;28;20044;-79
2023/09/23 12:22:20;;;;;;;5.15;4.30;;;15.90;99.90;;;;;;5108032;28;20031;-81
2023/09/23 12:24:46;;;;;;;7.72;4.15;;;15.90;99.90;;;;;;5090134;28;20146;-80
2023/09/23 12:27:12;;;;;;;8.85;4.32;;;15.70;99.90;;;;;;5083576;28;20071;-81
2023/09/23 12:29:38;;;;;;;6.20;4.03;;;15.70;99.90;;;;;;5098895;28;20054;-79
2023/09/23 12:32:07;;;;;;;4.43;2.88;;;15.50;99.90;;;;;;5096585;28;20503;-79
2023/09/23 12:34:33;;;;;;;6.65;2.80;;;15.40;99.90;;;;;;5077511;28;20043;-75
2023/09/23 12:36:59;;;;;;;6.95;3.25;;;15.20;99.90;;;;;;5112800;28;20044;-75
2023/09/23 12:39:24;;;;;;;4.63;3.35;;;15.20;99.90;;;;;;5093994;28;20044;-75